sensor_id;sensor_type;location;lat;lon;timestamp;pressure;altitude;pressure_sealevel;temperature;humidity
33075;BME280;19433;51.292;6.868;2023-09-30T00:01:00;101336.75;;;11.00;100.00
33075;BME280;19433;51.292;6.868;2023-09-30T00:03:25;101319.53;;;10.89;100.00
33075;BME280;19433;51.292;6.868;2023-09-30T00:05:51;101329.56;;;10.90;100.00
33075;BME280;19433;51.292;6.868;2023-09-30T00:08:18;101326.13;;;10.88;100.00
33075;BME280;19433;51.292;6.868;2023-09-30T00:10:43;101341.44;;;10.99;100.00
33075;BME280;19433;51.292;6.868;2023-09-30T00:13:08;101351.91;;;11.04;100.00
33075;BME280;19433;51.292;6.868;2023-09-30T00:15:34;101353.00;;;11.17;100.00
33075;BME280;19433;51.292;6.868;2023-09-30T00:17:59;101355.53;;;11.04;100.00
33075;BME280;19433;51.292;6.868;2023-09-30T00:20:26;101349.31;;;11.02;100.00
33075;BME280;19433;51.292;6.868;2023-09-30T00:22:52;101343.97;;;11.23;100.00
33075;BME280;19433;51.292;6.868;2023-09-30T00:25:17;101335.00;;;11.36;100.00
33075;BME280;19433;51.292;6.868;2023-09-30T00:27:43;101346.09;;;11.51;100.00
33075;BME280;19433;51.292;6.868;2023-09-30T00:30:08;101331.31;;;11.44;100.00
33075;BME280;19433;51.292;6.868;2023-09-30T00:32:33;101348.31;;;11.55;100.00
33075;BME280;19433;51.292;6.868;2023-09-30T00:35:01;101348.25;;;11.78;100.00
33075;BME280;19433;51.292;6.868;2023-09-30T00:37:26;101350.13;;;11.92;100.00
33075;BME280;19433;51.292;6.868;2023-09-30T00:39:52;101349.69;;;12.04;100.00
33075;BME280;19433;51.292;6.868;2023-09-30T00:42:18;101337.34;;;12.21;100.00
33075;BME280;19433;51.292;6.868;2023-09-30T00:44:45;101346.88;;;12.18;100.00
33075;BME280;19433;51.292;6.868;2023-09-30T00:47:11;101349.75;;;12.10;100.00
33075;BME280;19433;51.292;6.868;2023-09-30T00:49:36;101356.63;;;12.00;100.00
33075;BME280;19433;51.292;6.868;2023-09-30T00:52:02;101343.09;;;11.90;100.00
33075;BME280;19433;51.292;6.868;2023-09-30T00:54:28;101356.34;;;11.94;100.00
33075;BME280;19433;51.292;6.868;2023-09-30T00:56:55;101340.34;;;11.90;100.00
33075;BME280;19433;51.292;6.868;2023-09-30T00:59:25;101352.28;;;11.90;100.00
33075;BME280;19433;51.292;6.868;2023-09-30T01:01:51;101364.28;;;11.83;100.00
33075;BME280;19433;51.292;6.868;2023-09-30T01:04:19;101371.13;;;11.72;100.00
33075;BME280;19433;51.292;6.868;2023-09-30T01:06:45;101377.09;;;11.84;100.00
33075;BME280;19433;51.292;6.868;2023-09-30T01:09:12;101388.34;;;11.82;100.00
33075;BME280;19433;51.292;6.868;2023-09-30T01:11:39;101358.53;;;11.70;100.00
33075;BME280;19433;51.292;6.868;2023-09-30T01:14:05;101338.69;;;11.81;100.00
33075;BME280;19433;51.292;6.868;2023-09-30T01:16:30;101336.84;;;12.17;100.00
33075;BME280;19433;51.292;6.868;2023-09-30T01:18:55;101341.50;;;12.31;100.00
33075;BME280;19433;51.292;6.868;2023-09-30T01:21:22;101338.59;;;12.40;100.00
33075;BME280;19433;51.292;6.868;2023-09-30T01:23:48;101343.38;;;12.46;100.00
33075;BME280;19433;51.292;6.868;2023-09-30T01:26:13;101347.63;;;12.27;100.00
33075;BME280;19433;51.292;6.868;2023-09-30T01:28:40;101379.59;;;12.44;100.00
33075;BME280;19433;51.292;6.868;2023-09-30T01:31:06;101373.78;;;12.39;100.00
33075;BME280;19433;51.292;6.868;2023-09-30T01:33:31;101373.53;;;12.19;100.00
33075;BME280;19433;51.292;6.868;2023-09-30T01:35:58;101376.88;;;12.15;100.00
33075;BME280;19433;51.292;6.868;2023-09-30T01:38:24;101369.03;;;12.18;100.00
33075;BME280;19433;51.292;6.868;2023-09-30T01:40:49;101350.28;;;12.35;100.00
33075;BME280;19433;51.292;6.868;2023-09-30T01:43:15;101359.38;;;12.29;100.00
33075;BME280;19433;51.292;6.868;2023-09-30T01:45:41;101371.03;;;12.24;100.00
33075;BME280;19433;51.292;6.868;2023-09-30T01:48:07;101360.63;;;12.12;100.00
33075;BME280;19433;51.292;6.868;2023-09-30T01:50:36;101349.38;;;12.13;100.00
33075;BME280;19433;51.292;6.868;2023-09-30T01:53:03;101370.84;;;12.11;100.00
33075;BME280;19433;51.292;6.868;2023-09-30T01:55:28;101362.47;;;12.19;100.00
33075;BME280;19433;51.292;6.868;2023-09-30T01:57:54;101385.28;;;12.21;100.00
33075;BME280;19433;51.292;6.868;2023-09-30T02:00:19;101396.41;;;12.43;100.00
33075;BME280;19433;51.292;6.868;2023-09-30T02:02:44;101394.66;;;12.20;100.00
33075;BME280;19433;51.292;6.868;2023-09-30T02:05:10;101385.56;;;12.12;100.00
33075;BME280;19433;51.292;6.868;2023-09-30T02:07:35;101393.88;;;12.12;100.00
33075;BME280;19433;51.292;6.868;2023-09-30T02:10:00;101396.34;;;11.92;100.00
33075;BME280;19433;51.292;6.868;2023-09-30T02:12:27;101393.88;;;11.82;100.00
33075;BME280;19433;51.292;6.868;2023-09-30T02:14:53;101387.19;;;11.77;100.00
33075;BME280;19433;51.292;6.868;2023-09-30T02:17:18;101395.97;;;11.80;100.00
33075;BME280;19433;51.292;6.868;2023-09-30T02:19:44;101403.75;;;11.62;100.00
33075;BME280;19433;51.292;6.868;2023-09-30T02:22:10;101402.59;;;11.56;100.00
33075;BME280;19433;51.292;6.868;2023-09-30T02:24:35;101398.13;;;11.55;100.00
33075;BME280;19433;51.292;6.868;2023-09-30T02:27:00;101393.94;;;11.59;100.00
33075;BME280;19433;51.292;6.868;2023-09-30T02:29:26;101390.19;;;11.52;100.00
33075;BME280;19433;51.292;6.868;2023-09-30T02:31:51;101385.38;;;11.84;100.00
33075;BME280;19433;51.292;6.868;2023-09-30T02:34:16;101392.03;;;11.75;100.00
33075;BME280;19433;51.292;6.868;2023-09-30T02:36:42;101374.00;;;11.79;100.00
33075;BME280;19433;51.292;6.868;2023-09-30T02:39:08;101367.38;;;11.65;100.00
33075;BME280;19433;51.292;6.868;2023-09-30T02:41:36;101374.47;;;11.68;100.00
33075;BME280;19433;51.292;6.868;2023-09-30T02:44:04;101369.91;;;11.75;100.00
33075;BME280;19433;51.292;6.868;2023-09-30T02:46:29;101376.88;;;11.85;100.00
33075;BME280;19433;51.292;6.868;2023-09-30T02:48:54;101381.28;;;11.80;100.00
33075;BME280;19433;51.292;6.868;2023-09-30T02:51:20;101374.97;;;11.86;100.00
33075;BME280;19433;51.292;6.868;2023-09-30T02:53:45;101382.50;;;11.77;100.00
33075;BME280;19433;51.292;6.868;2023-09-30T02:56:13;101381.53;;;11.70;100.00
33075;BME280;19433;51.292;6.868;2023-09-30T02:58:38;101392.41;;;11.57;100.00
33075;BME280;19433;51.292;6.868;2023-09-30T03:01:05;101395.25;;;11.63;100.00
33075;BME280;19433;51.292;6.868;2023-09-30T03:03:32;101409.22;;;11.70;100.00
33075;BME280;19433;51.292;6.868;2023-09-30T03:05:58;101406.63;;;11.69;100.00
33075;BME280;19433;51.292;6.868;2023-09-30T03:08:25;101393.31;;;11.87;100.00
33075;BME280;19433;51.292;6.868;2023-09-30T03:10:51;101403.53;;;11.86;100.00
33075;BME280;19433;51.292;6.868;2023-09-30T03:13:16;101402.19;;;11.97;100.00
33075;BME280;19433;51.292;6.868;2023-09-30T03:15:43;101406.00;;;11.96;100.00
33075;BME280;19433;51.292;6.868;2023-09-30T03:18:09;101386.91;;;11.86;100.00
33075;BME280;19433;51.292;6.868;2023-09-30T03:20:34;101386.91;;;11.86;100.00
33075;BME280;19433;51.292;6.868;2023-09-30T03:22:59;101397.69;;;11.96;100.00
33075;BME280;19433;51.292;6.868;2023-09-30T03:25:25;101406.00;;;11.81;100.00
33075;BME280;19433;51.292;6.868;2023-09-30T03:27:50;101391.22;;;11.89;100.00
33075;BME280;19433;51.292;6.868;2023-09-30T03:30:16;101390.19;;;11.90;100.00
33075;BME280;19433;51.292;6.868;2023-09-30T03:32:43;101394.75;;;11.83;100.00
33075;BME280;19433;51.292;6.868;2023-09-30T03:35:10;101380.03;;;11.82;100.00
33075;BME280;19433;51.292;6.868;2023-09-30T03:37:45;101377.19;;;11.90;100.00
33075;BME280;19433;51.292;6.868;2023-09-30T03:40:12;101370.19;;;11.80;100.00
33075;BME280;19433;51.292;6.868;2023-09-30T03:42:45;101390.69;;;11.71;100.00
33075;BME280;19433;51.292;6.868;2023-09-30T03:45:11;101389.94;;;11.77;100.00
33075;BME280;19433;51.292;6.868;2023-09-30T03:47:40;101385.34;;;11.69;100.00
33075;BME280;19433;51.292;6.868;2023-09-30T03:50:06;101389.47;;;11.73;100.00
33075;BME280;19433;51.292;6.868;2023-09-30T03:52:39;101383.00;;;11.81;100.00
33075;BME280;19433;51.292;6.868;2023-09-30T03:55:05;101382.03;;;11.74;100.00
33075;BME280;19433;51.292;6.868;2023-09-30T03:57:34;101363.75;;;11.64;100.00
33075;BME280;19433;51.292;6.868;2023-09-30T04:00:03;101371.69;;;11.68;100.00
33075;BME280;19433;51.292;6.868;2023-09-30T04:02:31;101383.06;;;11.58;100.00
33075;BME280;19433;51.292;6.868;2023-09-30T04:04:56;101383.91;;;11.58;100.00
33075;BME280;19433;51.292;6.868;2023-09-30T04:07:22;101385.09;;;11.79;100.00
33075;BME280;19433;51.292;6.868;2023-09-30T04:09:54;101375.63;;;11.73;100.00
33075;BME280;19433;51.292;6.868;2023-09-30T04:12:19;101393.47;;;11.71;100.00
33075;BME280;19433;51.292;6.868;2023-09-30T04:14:45;101389.00;;;11.84;100.00
33075;BME280;19433;51.292;6.868;2023-09-30T04:17:10;101384.22;;;11.78;100.00
33075;BME280;19433;51.292;6.868;2023-09-30T04:19:35;101380.41;;;11.79;100.00
33075;BME280;19433;51.292;6.868;2023-09-30T04:22:00;101373.53;;;11.75;100.00
33075;BME280;19433;51.292;6.868;2023-09-30T04:24:26;101370.09;;;11.73;100.00
33075;BME280;19433;51.292;6.868;2023-09-30T04:26:53;101375.72;;;11.80;100.00
33075;BME280;19433;51.292;6.868;2023-09-30T04:29:22;101376.84;;;11.71;100.00
33075;BME280;19433;51.292;6.868;2023-09-30T04:31:48;101378.69;;;11.78;100.00
33075;BME280;19433;51.292;6.868;2023-09-30T04:34:14;101378.09;;;11.68;100.00
33075;BME280;19433;51.292;6.868;2023-09-30T04:36:40;101378.94;;;11.69;100.00
33075;BME280;19433;51.292;6.868;2023-09-30T04:39:05;101378.19;;;11.75;100.00
33075;BME280;19433;51.292;6.868;2023-09-30T04:41:30;101393.56;;;11.77;100.00
33075;BME280;19433;51.292;6.868;2023-09-30T04:43:56;101397.47;;;11.68;100.00
33075;BME280;19433;51.292;6.868;2023-09-30T04:46:21;101390.41;;;11.66;100.00
33075;BME280;19433;51.292;6.868;2023-09-30T04:48:48;101393.16;;;11.66;100.00
33075;BME280;19433;51.292;6.868;2023-09-30T04:51:17;101419.59;;;11.68;100.00
33075;BME280;19433;51.292;6.868;2023-09-30T04:53:44;101411.88;;;11.63;100.00
33075;BME280;19433;51.292;6.868;2023-09-30T04:56:11;101412.03;;;11.62;100.00
33075;BME280;19433;51.292;6.868;2023-09-30T04:58:37;101402.50;;;11.50;100.00
33075;BME280;19433;51.292;6.868;2023-09-30T05:01:02;101410.56;;;11.37;100.00
33075;BME280;19433;51.292;6.868;2023-09-30T05:03:28;101399.44;;;11.45;100.00
33075;BME280;19433;51.292;6.868;2023-09-30T05:05:53;101404.31;;;11.43;100.00
33075;BME280;19433;51.292;6.868;2023-09-30T05:08:23;101410.50;;;11.45;100.00
33075;BME280;19433;51.292;6.868;2023-09-30T05:10:48;101411.75;;;11.42;100.00
33075;BME280;19433;51.292;6.868;2023-09-30T05:13:13;101420.97;;;11.35;100.00
33075;BME280;19433;51.292;6.868;2023-09-30T05:15:40;101436.34;;;11.37;100.00
33075;BME280;19433;51.292;6.868;2023-09-30T05:18:06;101418.50;;;11.40;100.00
33075;BME280;19433;51.292;6.868;2023-09-30T05:20:33;101419.50;;;11.24;100.00
33075;BME280;19433;51.292;6.868;2023-09-30T05:23:01;101429.34;;;11.26;100.00
33075;BME280;19433;51.292;6.868;2023-09-30T05:25:27;101425.22;;;11.45;100.00
33075;BME280;19433;51.292;6.868;2023-09-30T05:27:53;101435.16;;;11.54;100.00
33075;BME280;19433;51.292;6.868;2023-09-30T05:30:19;101431.03;;;11.50;100.00
33075;BME280;19433;51.292;6.868;2023-09-30T05:32:45;101437.81;;;11.62;100.00
33075;BME280;19433;51.292;6.868;2023-09-30T05:35:11;101437.63;;;11.64;100.00
33075;BME280;19433;51.292;6.868;2023-09-30T05:37:39;101427.34;;;11.58;100.00
33075;BME280;19433;51.292;6.868;2023-09-30T05:40:05;101434.59;;;11.59;100.00
33075;BME280;19433;51.292;6.868;2023-09-30T05:42:41;101436.09;;;11.61;100.00
33075;BME280;19433;51.292;6.868;2023-09-30T05:45:09;101440.50;;;11.56;100.00
33075;BME280;19433;51.292;6.868;2023-09-30T05:47:34;101436.00;;;11.55;100.00
33075;BME280;19433;51.292;6.868;2023-09-30T05:50:00;101443.75;;;11.59;100.00
33075;BME280;19433;51.292;6.868;2023-09-30T05:52:25;101448.88;;;11.62;100.00
33075;BME280;19433;51.292;6.868;2023-09-30T05:54:50;101449.00;;;11.69;100.00
33075;BME280;19433;51.292;6.868;2023-09-30T05:57:16;101442.25;;;11.72;100.00
33075;BME280;19433;51.292;6.868;2023-09-30T05:59:41;101448.22;;;11.83;100.00
33075;BME280;19433;51.292;6.868;2023-09-30T06:02:06;101433.19;;;11.78;100.00
33075;BME280;19433;51.292;6.868;2023-09-30T06:04:32;101445.63;;;11.82;100.00
33075;BME280;19433;51.292;6.868;2023-09-30T06:06:58;101430.66;;;11.76;100.00
33075;BME280;19433;51.292;6.868;2023-09-30T06:09:23;101439.47;;;11.72;100.00
33075;BME280;19433;51.292;6.868;2023-09-30T06:11:50;101442.31;;;11.86;100.00
33075;BME280;19433;51.292;6.868;2023-09-30T06:14:15;101433.19;;;11.78;100.00
33075;BME280;19433;51.292;6.868;2023-09-30T06:16:41;101444.22;;;11.86;100.00
33075;BME280;19433;51.292;6.868;2023-09-30T06:19:06;101449.56;;;11.87;100.00
33075;BME280;19433;51.292;6.868;2023-09-30T06:21:31;101458.13;;;11.78;100.00
33075;BME280;19433;51.292;6.868;2023-09-30T06:24:00;101451.72;;;11.77;100.00
33075;BME280;19433;51.292;6.868;2023-09-30T06:26:25;101462.53;;;11.87;100.00
33075;BME280;19433;51.292;6.868;2023-09-30T06:28:51;101453.00;;;11.89;100.00
33075;BME280;19433;51.292;6.868;2023-09-30T06:31:19;101454.13;;;11.95;100.00
33075;BME280;19433;51.292;6.868;2023-09-30T06:33:44;101457.97;;;12.09;100.00
33075;BME280;19433;51.292;6.868;2023-09-30T06:36:11;101449.75;;;12.15;100.00
33075;BME280;19433;51.292;6.868;2023-09-30T06:38:38;101447.38;;;12.27;100.00
33075;BME280;19433;51.292;6.868;2023-09-30T06:41:04;101459.59;;;12.32;100.00
33075;BME280;19433;51.292;6.868;2023-09-30T06:43:30;101458.44;;;12.42;100.00
33075;BME280;19433;51.292;6.868;2023-09-30T06:45:55;101467.59;;;12.57;100.00
33075;BME280;19433;51.292;6.868;2023-09-30T06:48:21;101459.25;;;12.72;100.00
33075;BME280;19433;51.292;6.868;2023-09-30T06:50:49;101462.88;;;12.72;100.00
33075;BME280;19433;51.292;6.868;2023-09-30T06:53:16;101474.03;;;12.93;100.00
33075;BME280;19433;51.292;6.868;2023-09-30T06:55:42;101474.25;;;13.28;100.00
33075;BME280;19433;51.292;6.868;2023-09-30T06:58:11;101479.00;;;14.11;100.00
33075;BME280;19433;51.292;6.868;2023-09-30T07:00:40;101460.06;;;14.56;100.00
33075;BME280;19433;51.292;6.868;2023-09-30T07:03:05;101469.28;;;15.17;100.00
33075;BME280;19433;51.292;6.868;2023-09-30T07:05:30;101479.03;;;15.67;100.00
33075;BME280;19433;51.292;6.868;2023-09-30T07:07:56;101477.66;;;16.42;100.00
33075;BME280;19433;51.292;6.868;2023-09-30T07:10:21;101492.84;;;16.53;100.00
33075;BME280;19433;51.292;6.868;2023-09-30T07:12:47;101489.00;;;16.61;100.00
33075;BME280;19433;51.292;6.868;2023-09-30T07:15:12;101493.22;;;16.90;100.00
33075;BME280;19433;51.292;6.868;2023-09-30T07:17:39;101501.72;;;17.08;98.19
33075;BME280;19433;51.292;6.868;2023-09-30T07:20:05;101515.53;;;16.83;96.71
33075;BME280;19433;51.292;6.868;2023-09-30T07:22:33;101504.22;;;17.22;96.38
33075;BME280;19433;51.292;6.868;2023-09-30T07:24:58;101513.13;;;17.76;98.47
33075;BME280;19433;51.292;6.868;2023-09-30T07:27:24;101522.34;;;18.51;94.74
33075;BME280;19433;51.292;6.868;2023-09-30T07:29:49;101531.44;;;19.97;91.84
33075;BME280;19433;51.292;6.868;2023-09-30T07:32:15;101542.00;;;20.84;85.37
33075;BME280;19433;51.292;6.868;2023-09-30T07:34:40;101557.00;;;21.53;76.21
33075;BME280;19433;51.292;6.868;2023-09-30T07:37:06;101566.44;;;21.75;79.25
33075;BME280;19433;51.292;6.868;2023-09-30T07:39:31;101565.03;;;21.61;74.20
33075;BME280;19433;51.292;6.868;2023-09-30T07:41:56;101578.81;;;21.34;75.11
33075;BME280;19433;51.292;6.868;2023-09-30T07:44:21;101582.28;;;20.89;74.85
33075;BME280;19433;51.292;6.868;2023-09-30T07:46:47;101573.13;;;20.47;78.17
33075;BME280;19433;51.292;6.868;2023-09-30T07:49:14;101566.84;;;19.69;79.22
33075;BME280;19433;51.292;6.868;2023-09-30T07:51:40;101575.91;;;18.97;80.69
33075;BME280;19433;51.292;6.868;2023-09-30T07:54:06;101582.78;;;18.34;85.11
33075;BME280;19433;51.292;6.868;2023-09-30T07:56:31;101573.53;;;18.58;84.48
33075;BME280;19433;51.292;6.868;2023-09-30T07:58:57;101572.34;;;19.75;81.47
33075;BME280;19433;51.292;6.868;2023-09-30T08:01:22;101583.72;;;21.15;78.12
33075;BME280;19433;51.292;6.868;2023-09-30T08:03:47;101586.72;;;23.28;68.44
33075;BME280;19433;51.292;6.868;2023-09-30T08:06:13;101602.09;;;24.34;59.50
33075;BME280;19433;51.292;6.868;2023-09-30T08:08:39;101610.25;;;25.00;57.87
33075;BME280;19433;51.292;6.868;2023-09-30T08:11:05;101601.16;;;24.61;56.75
33075;BME280;19433;51.292;6.868;2023-09-30T08:13:31;101612.84;;;24.69;58.09
33075;BME280;19433;51.292;6.868;2023-09-30T08:15:58;101610.53;;;24.66;56.59
33075;BME280;19433;51.292;6.868;2023-09-30T08:18:23;101611.09;;;24.63;55.80
33075;BME280;19433;51.292;6.868;2023-09-30T08:20:50;101626.69;;;24.12;59.34
33075;BME280;19433;51.292;6.868;2023-09-30T08:23:16;101623.28;;;23.83;61.51
33075;BME280;19433;51.292;6.868;2023-09-30T08:25:41;101620.53;;;25.63;54.66
33075;BME280;19433;51.292;6.868;2023-09-30T08:28:07;101626.63;;;27.24;48.92
33075;BME280;19433;51.292;6.868;2023-09-30T08:30:34;101631.16;;;28.05;47.02
33075;BME280;19433;51.292;6.868;2023-09-30T08:33:00;101636.28;;;28.86;46.05
33075;BME280;19433;51.292;6.868;2023-09-30T08:35:25;101629.53;;;30.01;41.30
33075;BME280;19433;51.292;6.868;2023-09-30T08:37:50;101649.84;;;31.21;39.28
33075;BME280;19433;51.292;6.868;2023-09-30T08:40:22;101643.50;;;31.10;38.05
33075;BME280;19433;51.292;6.868;2023-09-30T08:42:51;101640.41;;;30.36;38.31
33075;BME280;19433;51.292;6.868;2023-09-30T08:45:17;101645.59;;;31.18;38.32
33075;BME280;19433;51.292;6.868;2023-09-30T08:47:43;101647.34;;;32.51;37.13
33075;BME280;19433;51.292;6.868;2023-09-30T08:50:08;101654.63;;;33.02;35.05
33075;BME280;19433;51.292;6.868;2023-09-30T08:52:37;101644.88;;;33.25;34.20
33075;BME280;19433;51.292;6.868;2023-09-30T08:55:03;101648.38;;;33.53;34.06
33075;BME280;19433;51.292;6.868;2023-09-30T08:57:29;101635.13;;;34.31;33.49
33075;BME280;19433;51.292;6.868;2023-09-30T08:59:55;101624.78;;;35.54;31.53
33075;BME280;19433;51.292;6.868;2023-09-30T09:02:22;101626.28;;;36.40;29.39
33075;BME280;19433;51.292;6.868;2023-09-30T09:04:48;101613.38;;;36.25;28.94
33075;BME280;19433;51.292;6.868;2023-09-30T09:07:14;101595.66;;;36.15;28.34
33075;BME280;19433;51.292;6.868;2023-09-30T09:09:39;101599.19;;;35.15;30.35
33075;BME280;19433;51.292;6.868;2023-09-30T09:12:05;101586.19;;;33.23;33.08
33075;BME280;19433;51.292;6.868;2023-09-30T09:14:40;101595.06;;;34.26;32.20
33075;BME280;19433;51.292;6.868;2023-09-30T09:17:07;101592.66;;;35.06;30.95
33075;BME280;19433;51.292;6.868;2023-09-30T09:19:33;101603.84;;;35.83;28.99
33075;BME280;19433;51.292;6.868;2023-09-30T09:22:01;101606.81;;;36.37;28.74
33075;BME280;19433;51.292;6.868;2023-09-30T09:24:34;101587.13;;;34.23;30.65
33075;BME280;19433;51.292;6.868;2023-09-30T09:27:10;101587.13;;;33.09;32.79
33075;BME280;19433;51.292;6.868;2023-09-30T09:29:37;101589.91;;;34.37;31.16
33075;BME280;19433;51.292;6.868;2023-09-30T09:34:37;101602.13;;;35.53;28.60
33075;BME280;19433;51.292;6.868;2023-09-30T09:37:21;101598.34;;;35.61;28.09
33075;BME280;19433;51.292;6.868;2023-09-30T09:39:54;101596.47;;;35.65;28.32
33075;BME280;19433;51.292;6.868;2023-09-30T09:42:31;101605.63;;;35.20;29.33
33075;BME280;19433;51.292;6.868;2023-09-30T09:45:04;101604.91;;;35.41;28.44
33075;BME280;19433;51.292;6.868;2023-09-30T09:47:33;101604.34;;;35.47;29.04
33075;BME280;19433;51.292;6.868;2023-09-30T09:49:59;101591.63;;;35.57;29.25
33075;BME280;19433;51.292;6.868;2023-09-30T09:52:25;101594.63;;;36.19;28.72
33075;BME280;19433;51.292;6.868;2023-09-30T09:54:51;101593.06;;;35.72;27.83
33075;BME280;19433;51.292;6.868;2023-09-30T09:57:18;101600.28;;;33.10;30.39
33075;BME280;19433;51.292;6.868;2023-09-30T09:59:49;101577.63;;;29.37;36.68
33075;BME280;19433;51.292;6.868;2023-09-30T10:02:16;101583.78;;;27.95;38.98
33075;BME280;19433;51.292;6.868;2023-09-30T10:04:44;101589.81;;;28.61;40.25
33075;BME280;19433;51.292;6.868;2023-09-30T10:07:13;101592.13;;;28.88;38.02
33075;BME280;19433;51.292;6.868;2023-09-30T10:09:41;101595.50;;;31.26;36.06
33075;BME280;19433;51.292;6.868;2023-09-30T10:12:09;101622.59;;;33.62;32.00
33075;BME280;19433;51.292;6.868;2023-09-30T10:14:35;101619.00;;;33.87;29.72
33075;BME280;19433;51.292;6.868;2023-09-30T10:17:03;101627.03;;;34.33;29.42
33075;BME280;19433;51.292;6.868;2023-09-30T10:19:29;101640.34;;;34.38;30.44
33075;BME280;19433;51.292;6.868;2023-09-30T10:24:41;101630.47;;;37.17;25.44
33075;BME280;19433;51.292;6.868;2023-09-30T10:29:48;101633.41;;;36.96;25.01
33075;BME280;19433;51.292;6.868;2023-09-30T10:32:14;101641.72;;;37.55;24.02
33075;BME280;19433;51.292;6.868;2023-09-30T10:34:47;101633.31;;;38.11;23.94
33075;BME280;19433;51.292;6.868;2023-09-30T10:37:20;101639.56;;;37.52;23.69
33075;BME280;19433;51.292;6.868;2023-09-30T10:39:53;101631.00;;;38.29;24.18
33075;BME280;19433;51.292;6.868;2023-09-30T10:42:48;101643.03;;;38.07;23.96
33075;BME280;19433;51.292;6.868;2023-09-30T10:50:51;101636.47;;;34.34;26.64
33075;BME280;19433;51.292;6.868;2023-09-30T10:53:20;101625.41;;;33.44;28.29
33075;BME280;19433;51.292;6.868;2023-09-30T10:55:55;101620.03;;;34.26;27.28
33075;BME280;19433;51.292;6.868;2023-09-30T10:58:20;101610.41;;;35.54;24.58
33075;BME280;19433;51.292;6.868;2023-09-30T11:00:55;101624.44;;;36.56;23.35
33075;BME280;19433;51.292;6.868;2023-09-30T11:03:21;101614.72;;;36.28;23.91
33075;BME280;19433;51.292;6.868;2023-09-30T11:05:50;101605.59;;;35.67;24.48
33075;BME280;19433;51.292;6.868;2023-09-30T11:08:17;101600.50;;;35.35;25.20
33075;BME280;19433;51.292;6.868;2023-09-30T11:10:50;101605.78;;;36.95;24.20
33075;BME280;19433;51.292;6.868;2023-09-30T11:13:17;101607.97;;;37.80;23.81
33075;BME280;19433;51.292;6.868;2023-09-30T11:15:44;101612.66;;;37.85;23.17
33075;BME280;19433;51.292;6.868;2023-09-30T11:18:16;101616.16;;;39.26;21.46
33075;BME280;19433;51.292;6.868;2023-09-30T11:20:43;101607.97;;;37.80;22.82
33075;BME280;19433;51.292;6.868;2023-09-30T11:23:09;101609.00;;;38.24;21.54
33075;BME280;19433;51.292;6.868;2023-09-30T11:25:36;101599.88;;;38.50;21.52
33075;BME280;19433;51.292;6.868;2023-09-30T11:28:17;101589.66;;;38.00;22.20
33075;BME280;19433;51.292;6.868;2023-09-30T11:31:00;101597.31;;;38.21;21.30
33075;BME280;19433;51.292;6.868;2023-09-30T11:33:27;101594.06;;;36.47;23.04
33075;BME280;19433;51.292;6.868;2023-09-30T11:36:11;101565.06;;;33.10;26.86
33075;BME280;19433;51.292;6.868;2023-09-30T11:38:36;101556.25;;;31.45;29.71
33075;BME280;19433;51.292;6.868;2023-09-30T11:41:05;101559.94;;;32.09;29.57
33075;BME280;19433;51.292;6.868;2023-09-30T11:43:58;101568.59;;;34.64;26.54
33075;BME280;19433;51.292;6.868;2023-09-30T11:46:25;101564.59;;;35.49;26.14
33075;BME280;19433;51.292;6.868;2023-09-30T11:48:57;101557.13;;;34.46;24.26
33075;BME280;19433;51.292;6.868;2023-09-30T11:51:25;101559.91;;;32.90;27.38
33075;BME280;19433;51.292;6.868;2023-09-30T11:53:51;101552.88;;;34.09;26.50
33075;BME280;19433;51.292;6.868;2023-09-30T11:56:18;101552.38;;;33.90;25.85
33075;BME280;19433;51.292;6.868;2023-09-30T11:58:43;101559.81;;;34.17;26.11
33075;BME280;19433;51.292;6.868;2023-09-30T12:01:09;101555.25;;;32.27;27.93
33075;BME280;19433;51.292;6.868;2023-09-30T12:03:39;101552.13;;;33.21;27.25
33075;BME280;19433;51.292;6.868;2023-09-30T12:06:05;101552.72;;;34.14;26.71
33075;BME280;19433;51.292;6.868;2023-09-30T12:08:31;101543.59;;;34.55;25.53
33075;BME280;19433;51.292;6.868;2023-09-30T12:10:57;101554.63;;;35.09;26.39
33075;BME280;19433;51.292;6.868;2023-09-30T12:13:23;101542.19;;;34.96;25.69
33075;BME280;19433;51.292;6.868;2023-09-30T12:15:49;101540.22;;;35.55;24.65
33075;BME280;19433;51.292;6.868;2023-09-30T12:18:14;101535.94;;;35.61;24.47
33075;BME280;19433;51.292;6.868;2023-09-30T12:20:42;101539.09;;;36.19;24.79
33075;BME280;19433;51.292;6.868;2023-09-30T12:23:09;101516.44;;;35.00;24.71
33075;BME280;19433;51.292;6.868;2023-09-30T12:25:34;101500.78;;;34.88;25.39
33075;BME280;19433;51.292;6.868;2023-09-30T12:28:02;101487.75;;;34.18;25.78
33075;BME280;19433;51.292;6.868;2023-09-30T12:30:28;101483.19;;;32.69;27.93
33075;BME280;19433;51.292;6.868;2023-09-30T12:32:53;101501.66;;;32.94;28.25
33075;BME280;19433;51.292;6.868;2023-09-30T12:35:20;101505.31;;;32.86;28.63
33075;BME280;19433;51.292;6.868;2023-09-30T12:37:46;101502.53;;;33.03;29.21
33075;BME280;19433;51.292;6.868;2023-09-30T12:40:11;101510.50;;;33.15;27.95
33075;BME280;19433;51.292;6.868;2023-09-30T12:42:39;101496.06;;;31.41;30.45
33075;BME280;19433;51.292;6.868;2023-09-30T12:45:05;101499.88;;;31.37;29.82
33075;BME280;19433;51.292;6.868;2023-09-30T12:47:30;101509.75;;;30.71;30.76
33075;BME280;19433;51.292;6.868;2023-09-30T12:49:56;101505.03;;;28.92;34.19
33075;BME280;19433;51.292;6.868;2023-09-30T12:52:24;101489.22;;;26.20;38.11
33075;BME280;19433;51.292;6.868;2023-09-30T12:54:50;101481.00;;;26.03;39.58
33075;BME280;19433;51.292;6.868;2023-09-30T12:57:16;101474.78;;;25.66;38.94